Airfield :
LOGIN :

Register | Disclaimer

   EN    FR    IT 

 










Legend :    VFR   Marginal VFR   IFR   Intensive IFR   Very Intensive IFR
Visi :
Ceiling :
>= 8 km
>= 3000ft
5 to 8 km
1000 to 3000 ft
1500m to 5 km
500 to 1000 ft
800 to 1500m
200 to 500 ft
< 800m
< 200 ft
Symbols :   Thunderstorms  Fog  Heavy snow  Heavy precipitations  Wind > 20 kt
SIGMETs :     Misc.  Thunderstorms  Icing  Turbulence  Mountain Waves  Volcanic Ashes






- Airport Elevation : 325 ft


LPCS - Cascais

CURRENT METAR :
  • 021000Z 36012KT 9999 FEW018 15/09 Q1015

EXPIRED METARs :
  • 020930Z 35010KT 9999 FEW017 14/08 Q1015
  • 020900Z 35011KT 9999 FEW017 13/09 Q1014
  • 020830Z 36011KT 9999 FEW017 13/09 Q1014
  • 020800Z 36007KT 9999 FEW017 11/08 Q1014
  • 020730Z 01004KT 310V070 9999 FEW017 09/07 Q1013

TAF TAF LPCS
Valid from the 02 at 09:00 until the 02 at 18:00 UTC


020800Z 0209/0218 01007KT 9999 FEW018
BECMG 0210/0211 34012KT SCT040



MET'MAP, your aeronautical weather chart ! - Copyright ORBIFLY December 2007 - Disclaimer

ORBIFLY MET'MAP TEAM :

Programming & Development : Alexandra Zaïnal
Concept & original design : Baudouin d'Aumeries
Assistance for programming : Marc-Olivier Méhu
Technical & hardware support : Manuel Goepfert

Contact : metmap@orbifly.com




SOURCES & CREDITS :

   NOAA